Mehmet Bey — 9HUD6 — position and weather

sailwx.info

Track history (hours):
 
Tides and Currents Weather Stations Pressure Air Temp Water Temp Dewpoint Dewpoint Depression Visibility Wind Speed Wind Dir Waves Ship Positions

Mehmet Bey

Last reported at 2017-Aug-22 20:33 UTC. Time now 2017-Aug-23 02:13 UTC.
Position N 46°05' E 030°49'.

Length 131 m; draft 8 m.

Type: Cargo ship. MMSI: 248864000.

Date/timePositionNaut miles runAvg speedWind from/ knotsBaromVisibWave heightAir tempDewpointWater temp
2017-Aug-22 20:33N 46°05' E 030°49'1 7.8
2017-Aug-22 20:25N 46°06' E 030°50'3 7.9
2017-Aug-22 20:00N 46°09' E 030°52'4 7.8
2017-Aug-22 19:30N 46°12' E 030°55'4 7.5
2017-Aug-22 19:00N 46°16' E 030°53'4 7.9
2017-Aug-22 18:30N 46°19' E 030°55'4 8.3
2017-Aug-22 18:00N 46°24' E 030°55'4 8.3
2017-Aug-22 17:30N 46°28' E 030°55'4 8.0
2017-Aug-22 17:00N 46°32' E 030°55'4 7.1
2017-Aug-22 16:30N 46°33' E 030°59'9 6.0
2017-Aug-22 14:57N 46°35' E 031°13'2 5.3
2017-Aug-22 14:30N 46°35' E 031°16'3 5.9
2017-Aug-22 14:01N 46°35' E 031°20'9 6.0
2017-Aug-22 12:34N 46°35' E 031°33'3 7.1
2017-Aug-22 12:09N 46°35' E 031°37'1 6.7
2017-Aug-22 12:00N 46°36' E 031°38'3 6.8
2017-Aug-22 11:30N 46°36' E 031°43'3 6.5
2017-Aug-22 11:00N 46°36' E 031°48'3 7.0
2017-Aug-22 10:30N 46°37' E 031°53'3 6.9
2017-Aug-22 10:00N 46°40' E 031°56'4 7.6
2017-Aug-22 09:30N 46°44' E 031°56'4 7.2
2017-Aug-22 09:00N 46°47' E 031°53'4 7.1
2017-Aug-22 08:30N 46°50' E 031°56'4 7.6
2017-Aug-22 08:00N 46°53' E 031°59'3 6.8
2017-Aug-22 07:30N 46°56' E 032°01'1 1.0
2017-Aug-22 06:59N 46°56' E 032°01'0 0.1
2017-Aug-22 06:29N 46°56' E 032°01'0 0.0
2017-Aug-22 05:59N 46°56' E 032°01'0 0.0
2017-Aug-22 05:29N 46°56' E 032°01'0 0.0
2017-Aug-22 04:59N 46°56' E 032°01'0 0.0
2017-Aug-22 04:29N 46°56' E 032°01'0 0.0
2017-Aug-22 03:59N 46°56' E 032°01'0 0.0
2017-Aug-22 03:29N 46°56' E 032°01'0 0.0
2017-Aug-22 02:59N 46°56' E 032°01'0 0.0
2017-Aug-22 02:29N 46°56' E 032°01'0 0.0
2017-Aug-22 01:59N 46°56' E 032°01'0 0.0
2017-Aug-22 01:29N 46°56' E 032°01'0 0.0
2017-Aug-22 00:59N 46°56' E 032°01'0 0.0
2017-Aug-22 00:29N 46°56' E 032°01'0 0.0
2017-Aug-21 23:59N 46°56' E 032°01'0 0.0
2017-Aug-21 23:29N 46°56' E 032°01'0 0.0
2017-Aug-21 22:59N 46°56' E 032°01'0 0.0
2017-Aug-21 22:29N 46°56' E 032°01'0 0.0
2017-Aug-21 21:59N 46°56' E 032°01'0 0.0
2017-Aug-21 21:29N 46°56' E 032°01'0 0.0
2017-Aug-21 20:59N 46°56' E 032°01'0 0.1
2017-Aug-21 20:29N 46°56' E 032°00'0 0.1
2017-Aug-21 19:59N 46°56' E 032°01'0 0.1
2017-Aug-21 19:30N 46°57' E 032°01'0 0.5
2017-Aug-21 19:01N 46°57' E 032°01'0 0.0
2017-Aug-21 18:29N 46°57' E 032°01'0 0.0
2017-Aug-21 17:59N 46°57' E 032°01'0 0.0
2017-Aug-21 17:23N 46°57' E 032°01'0 0.0
2017-Aug-21 16:56N 46°57' E 032°01'0 0.0
2017-Aug-21 16:29N 46°57' E 032°01'0 0.0
2017-Aug-21 15:59N 46°57' E 032°01'0 0.0
2017-Aug-21 15:29N 46°57' E 032°01'0 0.0
2017-Aug-21 14:59N 46°57' E 032°01'0 0.0
2017-Aug-21 14:17N 46°57' E 032°01'0 0.0
2017-Aug-21 13:59N 46°57' E 032°01'0 0.0
2017-Aug-21 13:29N 46°57' E 032°01'0 0.0
2017-Aug-21 12:56N 46°57' E 032°01'0 0.0
2017-Aug-21 12:29N 46°57' E 032°01'0 0.0
2017-Aug-21 11:59N 46°57' E 032°01'0 0.0
2017-Aug-21 08:26N 46°57' E 032°01'0 0.0
2017-Aug-21 07:59N 46°57' E 032°01'0 0.0
2017-Aug-21 07:29N 46°57' E 032°01'0 0.0
2017-Aug-21 06:50N 46°57' E 032°01'0 0.0
2017-Aug-21 06:05N 46°57' E 032°01'0 0.0
2017-Aug-21 05:59N 46°57' E 032°01'0 0.0
2017-Aug-21 05:26N 46°57' E 032°01'0 0.0
2017-Aug-21 04:50N 46°57' E 032°01'0 0.0
2017-Aug-21 04:14N 46°57' E 032°01'0 0.0
2017-Aug-21 03:47N 46°57' E 032°01'0 0.0
2017-Aug-21 03:29N 46°57' E 032°01'0 0.0
2017-Aug-21 02:59N 46°57' E 032°01'0 0.0
2017-Aug-21 02:29N 46°57' E 032°01'0 0.0
2017-Aug-21 01:14N 46°57' E 032°01'0 0.0
2017-Aug-21 00:59N 46°57' E 032°01'0 0.0
2017-Aug-21 00:29N 46°57' E 032°01'0 0.0
2017-Aug-20 23:35N 46°57' E 032°01'0 0.0
2017-Aug-20 23:29N 46°57' E 032°01'0 0.0
2017-Aug-20 22:53N 46°57' E 032°01'0 0.0
2017-Aug-20 22:29N 46°57' E 032°01'0 0.0
2017-Aug-20 21:53N 46°57' E 032°01'0 0.0
2017-Aug-20 21:17N 46°57' E 032°01'0 0.0
2017-Aug-20 20:50N 46°57' E 032°01'0 0.0
2017-Aug-20 20:23N 46°57' E 032°01'0 0.0
2017-Aug-20 19:38N 46°57' E 032°01'0 0.0
2017-Aug-20 19:26N 46°57' E 032°01'0 0.0
2017-Aug-20 18:59N 46°57' E 032°01'0 0.0
2017-Aug-20 18:29N 46°57' E 032°01'0 0.0
2017-Aug-20 17:56N 46°57' E 032°01'0 0.0
2017-Aug-20 10:23N 46°57' E 032°01'0 0.0
2017-Aug-20 09:38N 46°57' E 032°01'0 0.0
2017-Aug-20 09:20N 46°57' E 032°01'0 0.0
2017-Aug-20 08:47N 46°57' E 032°01'0 0.0
2017-Aug-20 08:26N 46°57' E 032°01'0 0.0
2017-Aug-20 07:59N 46°57' E 032°01'0 0.0
2017-Aug-20 07:29N 46°57' E 032°01'0 0.0
2017-Aug-20 06:56N 46°57' E 032°01'0 0.0
2017-Aug-20 06:26N 46°57' E 032°01'0 0.0
2017-Aug-20 05:56N 46°57' E 032°01'0 0.0
2017-Aug-20 05:29N 46°57' E 032°01'0 0.0
2017-Aug-20 04:20N 46°57' E 032°01'0 0.0
2017-Aug-20 02:29N 46°57' E 032°01'0 0.0
2017-Aug-20 01:59N 46°57' E 032°01'0 0.0
2017-Aug-20 01:29N 46°57' E 032°01'0 0.0
2017-Aug-20 00:59N 46°57' E 032°01'0 0.0
2017-Aug-20 00:23N 46°57' E 032°01'0 0.0
2017-Aug-19 23:59N 46°57' E 032°01'0 0.0
2017-Aug-19 23:14N 46°57' E 032°01'0 0.0
2017-Aug-19 22:53N 46°57' E 032°01'0 0.0
2017-Aug-19 21:53N 46°57' E 032°01'0 0.0
2017-Aug-19 21:02N 46°57' E 032°01'0 0.0
2017-Aug-19 20:59N 46°57' E 032°01'0 0.0
2017-Aug-19 20:29N 46°57' E 032°01'0 0.0
2017-Aug-19 19:53N 46°57' E 032°01'0 0.0
2017-Aug-19 19:29N 46°57' E 032°01'0 0.0
2017-Aug-19 18:59N 46°57' E 032°01'0 0.0
2017-Aug-19 18:23N 46°57' E 032°01'0 0.0
2017-Aug-19 17:44N 46°57' E 032°01'0 0.0
2017-Aug-19 17:26N 46°57' E 032°01'0 0.0
2017-Aug-19 16:38N 46°57' E 032°01'0 0.0
2017-Aug-19 16:29N 46°57' E 032°01'0 0.0
2017-Aug-19 15:44N 46°57' E 032°01'0 0.0
2017-Aug-19 15:29N 46°57' E 032°01'0 0.0
2017-Aug-19 14:59N 46°57' E 032°01'0 0.0
2017-Aug-19 13:47N 46°57' E 032°01'0 0.0
2017-Aug-19 13:18N 46°57' E 032°01'0 0.0
2017-Aug-19 12:18N 46°57' E 032°01'0 0.0
2017-Aug-19 11:39N 46°57' E 032°01'0 0.0
2017-Aug-19 09:09N 46°57' E 032°01'0 0.0
2017-Aug-19 08:55N 46°57' E 032°01'1 1.4
2017-Aug-19 08:30N 46°56' E 032°01'4 7.0
2017-Aug-19 08:00N 46°53' E 031°59'4 8.4
2017-Aug-19 07:31N 46°50' E 031°55'4 7.8
2017-Aug-19 07:00N 46°46' E 031°53'4 7.8
2017-Aug-19 06:30N 46°43' E 031°56'4 8.1
2017-Aug-19 06:01N 46°39' E 031°55'4 7.9
2017-Aug-19 05:29N 46°36' E 031°50'4 7.7
2017-Aug-19 05:00N 46°36' E 031°45'4 7.9
2017-Aug-19 04:31N 46°36' E 031°39'4 7.8
2017-Aug-19 04:00N 46°35' E 031°34'4 7.2
2017-Aug-19 03:30N 46°36' E 031°28'4 7.7
2017-Aug-19 03:00N 46°35' E 031°23'4 8.3
2017-Aug-19 02:30N 46°35' E 031°17'4 8.4
2017-Aug-19 02:00N 46°35' E 031°11'4 8.0
2017-Aug-19 01:30N 46°34' E 031°05'4 7.7
2017-Aug-19 01:00N 46°33' E 030°60'3 5.2
2017-Aug-19 00:30N 46°31' E 030°57'3 6.7
2017-Aug-19 00:00N 46°28' E 030°57'3 6.2
2017-Aug-18 23:30N 46°25' E 030°59'3 5.7
2017-Aug-18 23:01N 46°23' E 031°02'0 0.3
2017-Aug-18 22:28N 46°23' E 031°01'0 0.0
2017-Aug-18 21:58N 46°23' E 031°01'0 0.1
2017-Aug-18 21:28N 46°23' E 031°01'0 0.0
2017-Aug-18 20:58N 46°23' E 031°02'0 0.1
2017-Aug-18 20:28N 46°23' E 031°01'0 0.1
2017-Aug-18 19:52N 46°23' E 031°01'0 0.1
2017-Aug-18 19:25N 46°23' E 031°01'0 0.0
2017-Aug-18 18:58N 46°23' E 031°01'0 0.0
2017-Aug-18 18:22N 46°23' E 031°01'0 0.1
2017-Aug-18 17:55N 46°23' E 031°01'0 0.0
2017-Aug-18 17:28N 46°23' E 031°01'0 0.1
2017-Aug-18 16:58N 46°23' E 031°01'0 0.1
2017-Aug-18 16:28N 46°23' E 031°01'0 0.0
2017-Aug-18 15:58N 46°23' E 031°01'1 1.9
2017-Aug-18 15:30N 46°22' E 031°02'4 8.3
2017-Aug-18 15:01N 46°18' E 031°02'4 8.3
2017-Aug-18 14:30N 46°14' E 031°03'13 8.1
2017-Aug-18 12:54N 46°04' E 030°51'38 7.7
2017-Aug-18 08:00N 45°33' E 030°21'4 7.2
2017-Aug-18 07:31N 45°30' E 030°18'4 7.0
2017-Aug-18 07:00N 45°27' E 030°15'4 6.9
2017-Aug-18 06:24N 45°24' E 030°11'3 6.8
2017-Aug-18 05:58N 45°21' E 030°09'4 7.2
2017-Aug-18 05:26N 45°18' E 030°06'3 7.4
2017-Aug-18 05:00N 45°16' E 030°03'3 7.0
2017-Aug-18 04:30N 45°13' E 030°00'4 7.3
2017-Aug-18 04:00N 45°09' E 030°00'4 7.1
2017-Aug-18 03:30N 45°06' E 030°00'3 7.0
2017-Aug-18 03:01N 45°02' E 030°01'4 7.2
2017-Aug-18 02:30N 44°59' E 030°01'4 7.4
2017-Aug-18 02:01N 44°55' E 030°01'4 7.4
2017-Aug-18 01:30N 44°51' E 030°01'4 7.4
2017-Aug-18 01:01N 44°47' E 030°02'4 7.4
2017-Aug-18 00:30N 44°44' E 030°02'4 7.6
2017-Aug-18 00:01N 44°40' E 030°02'4 7.5
2017-Aug-17 23:30N 44°36' E 030°02'4 7.6
2017-Aug-17 23:01N 44°32' E 030°02'4 7.4
2017-Aug-17 22:30N 44°29' E 030°03'4 7.4
2017-Aug-17 22:01N 44°25' E 030°03'4 7.3
2017-Aug-17 21:30N 44°21' E 030°03'4 7.2
2017-Aug-17 21:00N 44°18' E 030°03'4 7.2
2017-Aug-17 20:30N 44°14' E 030°03'4 7.1
2017-Aug-17 20:01N 44°11' E 030°03'4 7.0
2017-Aug-17 19:30N 44°07' E 030°04'4 7.1
2017-Aug-17 19:01N 44°04' E 030°04'3 6.8
2017-Aug-17 18:30N 44°00' E 030°04'4 6.7
2017-Aug-17 17:59N 43°57' E 030°04'3 6.7
2017-Aug-17 17:31N 43°53' E 030°04'3 6.6
2017-Aug-17 17:01N 43°50' E 030°04'3 6.7
2017-Aug-17 16:30N 43°47' E 030°05'3 6.9
2017-Aug-17 16:00N 43°43' E 030°05'3 6.9
2017-Aug-17 15:30N 43°40' E 030°05'4 7.0
2017-Aug-17 15:01N 43°36' E 030°05'3 6.7
2017-Aug-17 14:30N 43°33' E 030°05'3 6.8
2017-Aug-17 14:00N 43°30' E 030°03'4 7.2
2017-Aug-17 13:30N 43°26' E 030°02'4 7.3
2017-Aug-17 13:01N 43°23' E 030°00'4 7.4
2017-Aug-17 12:31N 43°19' E 029°59'10 7.6
2017-Aug-17 11:08N 43°09' E 029°55'2 8.0
2017-Aug-17 10:56N 43°08' E 029°55'4 8.0
2017-Aug-17 10:27N 43°04' E 029°53'3 7.9
2017-Aug-17 10:00N 43°01' E 029°52'4 8.0
2017-Aug-17 09:30N 42°57' E 029°50'4 7.9
2017-Aug-17 09:00N 42°53' E 029°49'4 7.8
2017-Aug-17 08:30N 42°49' E 029°47'7 7.9
2017-Aug-17 07:35N 42°42' E 029°44'1 7.9
2017-Aug-17 07:30N 42°42' E 029°44'4 7.8
2017-Aug-17 07:00N 42°38' E 029°43'43 7.2
2017-Aug-17 01:01N 41°57' E 029°27'0 6.9
2017-Aug-17 01:00N 41°57' E 029°27'4 7.4
2017-Aug-17 00:30N 41°53' E 029°25'4 7.7
2017-Aug-16 23:59N 41°49' E 029°24'4 7.6
2017-Aug-16 23:24N 41°45' E 029°22'  
2017-Aug-13 00:47N 37°49' E 024°26'7 8.7
2017-Aug-12 23:58N 37°44' E 024°19'21 8.4
2017-Aug-12 21:26N 37°26' E 024°04'4 8.3
2017-Aug-12 21:00N 37°23' E 024°02'  
Track history (hours):
 
Tides and Currents Weather Stations Pressure Air Temp Water Temp Dewpoint Dewpoint Depression Visibility Wind Speed Wind Dir Waves Ship Positions

Mehmet Bey

Last reported at 2017-Aug-22 20:33 UTC. Time now 2017-Aug-23 02:13 UTC.
Position N 46°05' E 030°49'.

Length 131 m; draft 8 m.

Type: Cargo ship. MMSI: 248864000.

Date/timePositionNaut miles runAvg speedWind from/ knotsBaromVisibWave heightAir tempDewpointWater temp
2017-Aug-22 20:33N 46°05' E 030°49'1 7.8
2017-Aug-22 20:25N 46°06' E 030°50'3 7.9
2017-Aug-22 20:00N 46°09' E 030°52'4 7.8
2017-Aug-22 19:30N 46°12' E 030°55'4 7.5
2017-Aug-22 19:00N 46°16' E 030°53'4 7.9
2017-Aug-22 18:30N 46°19' E 030°55'4 8.3
2017-Aug-22 18:00N 46°24' E 030°55'4 8.3
2017-Aug-22 17:30N 46°28' E 030°55'4 8.0
2017-Aug-22 17:00N 46°32' E 030°55'4 7.1
2017-Aug-22 16:30N 46°33' E 030°59'9 6.0
2017-Aug-22 14:57N 46°35' E 031°13'2 5.3
2017-Aug-22 14:30N 46°35' E 031°16'3 5.9
2017-Aug-22 14:01N 46°35' E 031°20'9 6.0
2017-Aug-22 12:34N 46°35' E 031°33'3 7.1
2017-Aug-22 12:09N 46°35' E 031°37'1 6.7
2017-Aug-22 12:00N 46°36' E 031°38'3 6.8
2017-Aug-22 11:30N 46°36' E 031°43'3 6.5
2017-Aug-22 11:00N 46°36' E 031°48'3 7.0
2017-Aug-22 10:30N 46°37' E 031°53'3 6.9
2017-Aug-22 10:00N 46°40' E 031°56'4 7.6
2017-Aug-22 09:30N 46°44' E 031°56'4 7.2
2017-Aug-22 09:00N 46°47' E 031°53'4 7.1
2017-Aug-22 08:30N 46°50' E 031°56'4 7.6
2017-Aug-22 08:00N 46°53' E 031°59'3 6.8
2017-Aug-22 07:30N 46°56' E 032°01'1 1.0
2017-Aug-22 06:59N 46°56' E 032°01'0 0.1
2017-Aug-22 06:29N 46°56' E 032°01'0 0.0
2017-Aug-22 05:59N 46°56' E 032°01'0 0.0
2017-Aug-22 05:29N 46°56' E 032°01'0 0.0
2017-Aug-22 04:59N 46°56' E 032°01'0 0.0
2017-Aug-22 04:29N 46°56' E 032°01'0 0.0
2017-Aug-22 03:59N 46°56' E 032°01'0 0.0
2017-Aug-22 03:29N 46°56' E 032°01'0 0.0
2017-Aug-22 02:59N 46°56' E 032°01'0 0.0
2017-Aug-22 02:29N 46°56' E 032°01'0 0.0
2017-Aug-22 01:59N 46°56' E 032°01'0 0.0
2017-Aug-22 01:29N 46°56' E 032°01'0 0.0
2017-Aug-22 00:59N 46°56' E 032°01'0 0.0
2017-Aug-22 00:29N 46°56' E 032°01'0 0.0
2017-Aug-21 23:59N 46°56' E 032°01'0 0.0
2017-Aug-21 23:29N 46°56' E 032°01'0 0.0
2017-Aug-21 22:59N 46°56' E 032°01'0 0.0
2017-Aug-21 22:29N 46°56' E 032°01'0 0.0
2017-Aug-21 21:59N 46°56' E 032°01'0 0.0
2017-Aug-21 21:29N 46°56' E 032°01'0 0.0
2017-Aug-21 20:59N 46°56' E 032°01'0 0.1
2017-Aug-21 20:29N 46°56' E 032°00'0 0.1
2017-Aug-21 19:59N 46°56' E 032°01'0 0.1
2017-Aug-21 19:30N 46°57' E 032°01'0 0.5
2017-Aug-21 19:01N 46°57' E 032°01'0 0.0
2017-Aug-21 18:29N 46°57' E 032°01'0 0.0
2017-Aug-21 17:59N 46°57' E 032°01'0 0.0
2017-Aug-21 17:23N 46°57' E 032°01'0 0.0
2017-Aug-21 16:56N 46°57' E 032°01'0 0.0
2017-Aug-21 16:29N 46°57' E 032°01'0 0.0
2017-Aug-21 15:59N 46°57' E 032°01'0 0.0
2017-Aug-21 15:29N 46°57' E 032°01'0 0.0
2017-Aug-21 14:59N 46°57' E 032°01'0 0.0
2017-Aug-21 14:17N 46°57' E 032°01'0 0.0
2017-Aug-21 13:59N 46°57' E 032°01'0 0.0
2017-Aug-21 13:29N 46°57' E 032°01'0 0.0
2017-Aug-21 12:56N 46°57' E 032°01'0 0.0
2017-Aug-21 12:29N 46°57' E 032°01'0 0.0
2017-Aug-21 11:59N 46°57' E 032°01'0 0.0
2017-Aug-21 08:26N 46°57' E 032°01'0 0.0
2017-Aug-21 07:59N 46°57' E 032°01'0 0.0
2017-Aug-21 07:29N 46°57' E 032°01'0 0.0
2017-Aug-21 06:50N 46°57' E 032°01'0 0.0
2017-Aug-21 06:05N 46°57' E 032°01'0 0.0
2017-Aug-21 05:59N 46°57' E 032°01'0 0.0
2017-Aug-21 05:26N 46°57' E 032°01'0 0.0
2017-Aug-21 04:50N 46°57' E 032°01'0 0.0
2017-Aug-21 04:14N 46°57' E 032°01'0 0.0
2017-Aug-21 03:47N 46°57' E 032°01'0 0.0
2017-Aug-21 03:29N 46°57' E 032°01'0 0.0
2017-Aug-21 02:59N 46°57' E 032°01'0 0.0
2017-Aug-21 02:29N 46°57' E 032°01'0 0.0
2017-Aug-21 01:14N 46°57' E 032°01'0 0.0
2017-Aug-21 00:59N 46°57' E 032°01'0 0.0
2017-Aug-21 00:29N 46°57' E 032°01'0 0.0
2017-Aug-20 23:35N 46°57' E 032°01'0 0.0
2017-Aug-20 23:29N 46°57' E 032°01'0 0.0
2017-Aug-20 22:53N 46°57' E 032°01'0 0.0
2017-Aug-20 22:29N 46°57' E 032°01'0 0.0
2017-Aug-20 21:53N 46°57' E 032°01'0 0.0
2017-Aug-20 21:17N 46°57' E 032°01'0 0.0
2017-Aug-20 20:50N 46°57' E 032°01'0 0.0
2017-Aug-20 20:23N 46°57' E 032°01'0 0.0
2017-Aug-20 19:38N 46°57' E 032°01'0 0.0
2017-Aug-20 19:26N 46°57' E 032°01'0 0.0
2017-Aug-20 18:59N 46°57' E 032°01'0 0.0
2017-Aug-20 18:29N 46°57' E 032°01'0 0.0
2017-Aug-20 17:56N 46°57' E 032°01'0 0.0
2017-Aug-20 10:23N 46°57' E 032°01'0 0.0
2017-Aug-20 09:38N 46°57' E 032°01'0 0.0
2017-Aug-20 09:20N 46°57' E 032°01'0 0.0
2017-Aug-20 08:47N 46°57' E 032°01'0 0.0
2017-Aug-20 08:26N 46°57' E 032°01'0 0.0
2017-Aug-20 07:59N 46°57' E 032°01'0 0.0
2017-Aug-20 07:29N 46°57' E 032°01'0 0.0
2017-Aug-20 06:56N 46°57' E 032°01'0 0.0
2017-Aug-20 06:26N 46°57' E 032°01'0 0.0
2017-Aug-20 05:56N 46°57' E 032°01'0 0.0
2017-Aug-20 05:29N 46°57' E 032°01'0 0.0
2017-Aug-20 04:20N 46°57' E 032°01'0 0.0
2017-Aug-20 02:29N 46°57' E 032°01'0 0.0
2017-Aug-20 01:59N 46°57' E 032°01'0 0.0
2017-Aug-20 01:29N 46°57' E 032°01'0 0.0
2017-Aug-20 00:59N 46°57' E 032°01'0 0.0
2017-Aug-20 00:23N 46°57' E 032°01'0 0.0
2017-Aug-19 23:59N 46°57' E 032°01'0 0.0
2017-Aug-19 23:14N 46°57' E 032°01'0 0.0
2017-Aug-19 22:53N 46°57' E 032°01'0 0.0
2017-Aug-19 21:53N 46°57' E 032°01'0 0.0
2017-Aug-19 21:02N 46°57' E 032°01'0 0.0
2017-Aug-19 20:59N 46°57' E 032°01'0 0.0
2017-Aug-19 20:29N 46°57' E 032°01'0 0.0
2017-Aug-19 19:53N 46°57' E 032°01'0 0.0
2017-Aug-19 19:29N 46°57' E 032°01'0 0.0
2017-Aug-19 18:59N 46°57' E 032°01'0 0.0
2017-Aug-19 18:23N 46°57' E 032°01'0 0.0
2017-Aug-19 17:44N 46°57' E 032°01'0 0.0
2017-Aug-19 17:26N 46°57' E 032°01'0 0.0
2017-Aug-19 16:38N 46°57' E 032°01'0 0.0
2017-Aug-19 16:29N 46°57' E 032°01'0 0.0
2017-Aug-19 15:44N 46°57' E 032°01'0 0.0
2017-Aug-19 15:29N 46°57' E 032°01'0 0.0
2017-Aug-19 14:59N 46°57' E 032°01'0 0.0
2017-Aug-19 13:47N 46°57' E 032°01'0 0.0
2017-Aug-19 13:18N 46°57' E 032°01'0 0.0
2017-Aug-19 12:18N 46°57' E 032°01'0 0.0
2017-Aug-19 11:39N 46°57' E 032°01'0 0.0
2017-Aug-19 09:09N 46°57' E 032°01'0 0.0
2017-Aug-19 08:55N 46°57' E 032°01'1 1.4
2017-Aug-19 08:30N 46°56' E 032°01'4 7.0
2017-Aug-19 08:00N 46°53' E 031°59'4 8.4
2017-Aug-19 07:31N 46°50' E 031°55'4 7.8
2017-Aug-19 07:00N 46°46' E 031°53'4 7.8
2017-Aug-19 06:30N 46°43' E 031°56'4 8.1
2017-Aug-19 06:01N 46°39' E 031°55'4 7.9
2017-Aug-19 05:29N 46°36' E 031°50'4 7.7
2017-Aug-19 05:00N 46°36' E 031°45'4 7.9
2017-Aug-19 04:31N 46°36' E 031°39'4 7.8
2017-Aug-19 04:00N 46°35' E 031°34'4 7.2
2017-Aug-19 03:30N 46°36' E 031°28'4 7.7
2017-Aug-19 03:00N 46°35' E 031°23'4 8.3
2017-Aug-19 02:30N 46°35' E 031°17'4 8.4
2017-Aug-19 02:00N 46°35' E 031°11'4 8.0
2017-Aug-19 01:30N 46°34' E 031°05'4 7.7
2017-Aug-19 01:00N 46°33' E 030°60'3 5.2
2017-Aug-19 00:30N 46°31' E 030°57'3 6.7
2017-Aug-19 00:00N 46°28' E 030°57'3 6.2
2017-Aug-18 23:30N 46°25' E 030°59'3 5.7
2017-Aug-18 23:01N 46°23' E 031°02'0 0.3
2017-Aug-18 22:28N 46°23' E 031°01'0 0.0
2017-Aug-18 21:58N 46°23' E 031°01'0 0.1
2017-Aug-18 21:28N 46°23' E 031°01'0 0.0
2017-Aug-18 20:58N 46°23' E 031°02'0 0.1
2017-Aug-18 20:28N 46°23' E 031°01'0 0.1
2017-Aug-18 19:52N 46°23' E 031°01'0 0.1
2017-Aug-18 19:25N 46°23' E 031°01'0 0.0
2017-Aug-18 18:58N 46°23' E 031°01'0 0.0
2017-Aug-18 18:22N 46°23' E 031°01'0 0.1
2017-Aug-18 17:55N 46°23' E 031°01'0 0.0
2017-Aug-18 17:28N 46°23' E 031°01'0 0.1
2017-Aug-18 16:58N 46°23' E 031°01'0 0.1
2017-Aug-18 16:28N 46°23' E 031°01'0 0.0
2017-Aug-18 15:58N 46°23' E 031°01'1 1.9
2017-Aug-18 15:30N 46°22' E 031°02'4 8.3
2017-Aug-18 15:01N 46°18' E 031°02'4 8.3
2017-Aug-18 14:30N 46°14' E 031°03'13 8.1
2017-Aug-18 12:54N 46°04' E 030°51'38 7.7
2017-Aug-18 08:00N 45°33' E 030°21'4 7.2
2017-Aug-18 07:31N 45°30' E 030°18'4 7.0
2017-Aug-18 07:00N 45°27' E 030°15'4 6.9
2017-Aug-18 06:24N 45°24' E 030°11'3 6.8
2017-Aug-18 05:58N 45°21' E 030°09'4 7.2
2017-Aug-18 05:26N 45°18' E 030°06'3 7.4
2017-Aug-18 05:00N 45°16' E 030°03'3 7.0
2017-Aug-18 04:30N 45°13' E 030°00'4 7.3
2017-Aug-18 04:00N 45°09' E 030°00'4 7.1
2017-Aug-18 03:30N 45°06' E 030°00'3 7.0
2017-Aug-18 03:01N 45°02' E 030°01'4 7.2
2017-Aug-18 02:30N 44°59' E 030°01'4 7.4
2017-Aug-18 02:01N 44°55' E 030°01'4 7.4
2017-Aug-18 01:30N 44°51' E 030°01'4 7.4
2017-Aug-18 01:01N 44°47' E 030°02'4 7.4
2017-Aug-18 00:30N 44°44' E 030°02'4 7.6
2017-Aug-18 00:01N 44°40' E 030°02'4 7.5
2017-Aug-17 23:30N 44°36' E 030°02'4 7.6
2017-Aug-17 23:01N 44°32' E 030°02'4 7.4
2017-Aug-17 22:30N 44°29' E 030°03'4 7.4
2017-Aug-17 22:01N 44°25' E 030°03'4 7.3
2017-Aug-17 21:30N 44°21' E 030°03'4 7.2
2017-Aug-17 21:00N 44°18' E 030°03'4 7.2
2017-Aug-17 20:30N 44°14' E 030°03'4 7.1
2017-Aug-17 20:01N 44°11' E 030°03'4 7.0
2017-Aug-17 19:30N 44°07' E 030°04'4 7.1
2017-Aug-17 19:01N 44°04' E 030°04'3 6.8
2017-Aug-17 18:30N 44°00' E 030°04'4 6.7
2017-Aug-17 17:59N 43°57' E 030°04'3 6.7
2017-Aug-17 17:31N 43°53' E 030°04'3 6.6
2017-Aug-17 17:01N 43°50' E 030°04'3 6.7
2017-Aug-17 16:30N 43°47' E 030°05'3 6.9
2017-Aug-17 16:00N 43°43' E 030°05'3 6.9
2017-Aug-17 15:30N 43°40' E 030°05'4 7.0
2017-Aug-17 15:01N 43°36' E 030°05'3 6.7
2017-Aug-17 14:30N 43°33' E 030°05'3 6.8
2017-Aug-17 14:00N 43°30' E 030°03'4 7.2
2017-Aug-17 13:30N 43°26' E 030°02'4 7.3
2017-Aug-17 13:01N 43°23' E 030°00'4 7.4
2017-Aug-17 12:31N 43°19' E 029°59'10 7.6
2017-Aug-17 11:08N 43°09' E 029°55'2 8.0
2017-Aug-17 10:56N 43°08' E 029°55'4 8.0
2017-Aug-17 10:27N 43°04' E 029°53'3 7.9
2017-Aug-17 10:00N 43°01' E 029°52'4 8.0
2017-Aug-17 09:30N 42°57' E 029°50'4 7.9
2017-Aug-17 09:00N 42°53' E 029°49'4 7.8
2017-Aug-17 08:30N 42°49' E 029°47'7 7.9
2017-Aug-17 07:35N 42°42' E 029°44'1 7.9
2017-Aug-17 07:30N 42°42' E 029°44'4 7.8
2017-Aug-17 07:00N 42°38' E 029°43'43 7.2
2017-Aug-17 01:01N 41°57' E 029°27'0 6.9
2017-Aug-17 01:00N 41°57' E 029°27'4 7.4
2017-Aug-17 00:30N 41°53' E 029°25'4 7.7
2017-Aug-16 23:59N 41°49' E 029°24'4 7.6
2017-Aug-16 23:24N 41°45' E 029°22'  
2017-Aug-13 00:47N 37°49' E 024°26'7 8.7
2017-Aug-12 23:58N 37°44' E 024°19'21 8.4
2017-Aug-12 21:26N 37°26' E 024°04'4 8.3
2017-Aug-12 21:00N 37°23' E 024°02'  

Dump ship's entire track history